Granite Falls, NC

11:33 AM EDT on April 29, 2017 (GMT -0400)
Granite Falls- Downtown | | Change Station

Elev 1198 ft 35.80 °N, 81.43 °W | Updated 15 seconds ago

Overcast
Overcast
74.0 °F
Feels Like 72 °F
N
4.0
Wind Variable Wind from South

Today
High -- | Low -- °F
--% Chance of Precip.
Yesterday
High -- | Low -- °F
Precip. -- in
Pressure 30.22 in
Visibility 5.0 miles
Clouds Scattered Clouds 500 ft
Overcast 1000 ft
Heat Index 72 °F
Dew Point 71 °F
Humidity 91%
Rainfall 0.00 in
Snow Depth Not available.
6:35 AM 8:11 PM
Waxing Crescent, 14% visible
SPECI KHKY 291509Z 20003KT 5SM BR SCT005 OVC010 22/21 A3022 RMK AO2 CIG 007V013 T02220211
Pressure 30.22 in
Visibility 5.0 miles
Clouds Scattered Clouds 500 ft
Overcast 1000 ft
Heat Index 72 °F
Dew Point 71 °F
Humidity 91%
Rainfall 0.00 in
Snow Depth Not available.
6:35 AM 8:11 PM
Waxing Crescent, 14% visible
SPECI KHKY 291509Z 20003KT 5SM BR SCT005 OVC010 22/21 A3022 RMK AO2 CIG 007V013 T02220211

Get Severe Weather Alerts

Thanks for signing up!

Be on the lookout for a verification email in your inbox.

You'll start receiving the daily forecast at 8 AM.

×

10-Day Weather Forecast

Almanac

Astronomy

Apr. 29, 2017 Rise Set
Actual Time
Civil Twilight
Nautical Twilight
Astronomical Twilight
Moon
Length of Visible Light
Length of Day
Tomorrow will be .
, % of the Moon is Illuminated

Today's Extremes

State Highs State Lows

Community

WunderPhotos

WunderBlog® & News

Nearby

Air Quality

  Air Quality AQ Index Pollutant
Not available.

Snow Depth

Station Depth Elevation

Earthquake Activity

City Distance Mag. Time & Date
Minimum magnitude displayed is 2.5.

Coastal Water Temperatures

Place Temperature

Stations

Nearby Weather Stations

Station Location Temp. Windchill Dew Point Humidity Wind Precip. Elev Updated Type
                   

Watches & Warnings

There are currently no watches in effect.